sensor_id;sensor_type;location;lat;lon;timestamp;temperature;humidity
20654;DHT22;21083;50.898;4.902;2023-08-07T00:01:17;13.80;99.90
20654;DHT22;21083;50.898;4.902;2023-08-07T00:03:45;13.70;99.90
20654;DHT22;21083;50.898;4.902;2023-08-07T00:06:13;13.60;99.90
20654;DHT22;21083;50.898;4.902;2023-08-07T00:08:40;13.80;99.90
20654;DHT22;21083;50.898;4.902;2023-08-07T00:11:08;13.80;99.90
20654;DHT22;21083;50.898;4.902;2023-08-07T00:13:35;13.90;99.90
20654;DHT22;21083;50.898;4.902;2023-08-07T00:16:03;13.80;99.90
20654;DHT22;21083;50.898;4.902;2023-08-07T00:18:30;13.70;99.90
20654;DHT22;21083;50.898;4.902;2023-08-07T00:20:58;13.60;99.90
20654;DHT22;21083;50.898;4.902;2023-08-07T00:23:25;13.50;99.90
20654;DHT22;21083;50.898;4.902;2023-08-07T00:25:52;13.50;99.90
20654;DHT22;21083;50.898;4.902;2023-08-07T00:28:19;13.50;99.90
20654;DHT22;21083;50.898;4.902;2023-08-07T00:30:46;13.70;99.90
20654;DHT22;21083;50.898;4.902;2023-08-07T00:33:13;13.70;99.90
20654;DHT22;21083;50.898;4.902;2023-08-07T00:35:40;13.80;99.90
20654;DHT22;21083;50.898;4.902;2023-08-07T00:38:08;13.60;99.90
20654;DHT22;21083;50.898;4.902;2023-08-07T00:40:39;13.60;99.90
20654;DHT22;21083;50.898;4.902;2023-08-07T00:43:06;13.60;99.90
20654;DHT22;21083;50.898;4.902;2023-08-07T00:45:41;13.60;99.90
20654;DHT22;21083;50.898;4.902;2023-08-07T00:48:09;13.50;99.90
20654;DHT22;21083;50.898;4.902;2023-08-07T00:50:36;13.70;99.90
20654;DHT22;21083;50.898;4.902;2023-08-07T00:53:04;13.70;99.90
20654;DHT22;21083;50.898;4.902;2023-08-07T00:55:33;13.60;99.90
20654;DHT22;21083;50.898;4.902;2023-08-07T00:58:00;13.70;99.90
20654;DHT22;21083;50.898;4.902;2023-08-07T01:00:28;13.40;99.90
20654;DHT22;21083;50.898;4.902;2023-08-07T01:02:56;13.30;99.90
20654;DHT22;21083;50.898;4.902;2023-08-07T01:05:24;13.50;99.90
20654;DHT22;21083;50.898;4.902;2023-08-07T01:07:54;13.60;99.90
20654;DHT22;21083;50.898;4.902;2023-08-07T01:10:27;13.50;99.90
20654;DHT22;21083;50.898;4.902;2023-08-07T01:13:05;13.40;99.90
20654;DHT22;21083;50.898;4.902;2023-08-07T01:15:34;13.30;99.90
20654;DHT22;21083;50.898;4.902;2023-08-07T01:18:02;13.40;99.90
20654;DHT22;21083;50.898;4.902;2023-08-07T01:20:30;13.40;99.90
20654;DHT22;21083;50.898;4.902;2023-08-07T01:22:59;13.50;99.90
20654;DHT22;21083;50.898;4.902;2023-08-07T01:25:26;13.40;99.90
20654;DHT22;21083;50.898;4.902;2023-08-07T01:28:00;13.50;99.90
20654;DHT22;21083;50.898;4.902;2023-08-07T01:30:33;13.50;99.90
20654;DHT22;21083;50.898;4.902;2023-08-07T01:33:09;13.50;99.90
20654;DHT22;21083;50.898;4.902;2023-08-07T01:35:41;13.60;99.90
20654;DHT22;21083;50.898;4.902;2023-08-07T01:38:11;13.50;99.90
20654;DHT22;21083;50.898;4.902;2023-08-07T01:40:39;13.60;99.90
20654;DHT22;21083;50.898;4.902;2023-08-07T01:43:07;13.40;99.90
20654;DHT22;21083;50.898;4.902;2023-08-07T01:45:34;13.40;99.90
20654;DHT22;21083;50.898;4.902;2023-08-07T01:48:01;13.30;99.90
20654;DHT22;21083;50.898;4.902;2023-08-07T01:50:29;13.40;99.90
20654;DHT22;21083;50.898;4.902;2023-08-07T01:52:56;13.40;99.90
20654;DHT22;21083;50.898;4.902;2023-08-07T01:55:24;13.40;99.90
20654;DHT22;21083;50.898;4.902;2023-08-07T01:57:51;13.40;99.90
20654;DHT22;21083;50.898;4.902;2023-08-07T02:00:19;13.40;99.90
20654;DHT22;21083;50.898;4.902;2023-08-07T02:02:46;13.30;99.90
20654;DHT22;21083;50.898;4.902;2023-08-07T02:05:13;13.30;99.90
20654;DHT22;21083;50.898;4.902;2023-08-07T02:07:41;13.30;99.90
20654;DHT22;21083;50.898;4.902;2023-08-07T02:10:08;13.30;99.90
20654;DHT22;21083;50.898;4.902;2023-08-07T02:12:37;13.30;99.90
20654;DHT22;21083;50.898;4.902;2023-08-07T02:15:05;13.30;99.90
20654;DHT22;21083;50.898;4.902;2023-08-07T02:17:32;13.20;99.90
20654;DHT22;21083;50.898;4.902;2023-08-07T02:19:59;13.20;99.90
20654;DHT22;21083;50.898;4.902;2023-08-07T02:22:26;13.20;99.90
20654;DHT22;21083;50.898;4.902;2023-08-07T02:24:53;13.20;99.90
20654;DHT22;21083;50.898;4.902;2023-08-07T02:27:20;13.20;99.90
20654;DHT22;21083;50.898;4.902;2023-08-07T02:29:48;13.30;99.90
20654;DHT22;21083;50.898;4.902;2023-08-07T02:32:16;13.20;99.90
20654;DHT22;21083;50.898;4.902;2023-08-07T02:34:44;13.10;99.90
20654;DHT22;21083;50.898;4.902;2023-08-07T02:37:11;13.30;99.90
20654;DHT22;21083;50.898;4.902;2023-08-07T02:39:38;13.30;99.90
20654;DHT22;21083;50.898;4.902;2023-08-07T02:42:06;13.30;99.90
20654;DHT22;21083;50.898;4.902;2023-08-07T02:44:33;13.30;99.90
20654;DHT22;21083;50.898;4.902;2023-08-07T02:47:01;13.40;99.90
20654;DHT22;21083;50.898;4.902;2023-08-07T02:49:29;13.40;99.90
20654;DHT22;21083;50.898;4.902;2023-08-07T02:51:56;13.10;99.90
20654;DHT22;21083;50.898;4.902;2023-08-07T02:54:23;13.10;99.90
20654;DHT22;21083;50.898;4.902;2023-08-07T02:56:50;13.10;99.90
20654;DHT22;21083;50.898;4.902;2023-08-07T02:59:17;13.10;99.90
20654;DHT22;21083;50.898;4.902;2023-08-07T03:01:45;13.10;99.90
20654;DHT22;21083;50.898;4.902;2023-08-07T03:04:13;13.20;99.90
20654;DHT22;21083;50.898;4.902;2023-08-07T03:06:40;13.10;99.90
20654;DHT22;21083;50.898;4.902;2023-08-07T03:09:07;13.10;99.90
20654;DHT22;21083;50.898;4.902;2023-08-07T03:11:34;13.20;99.90
20654;DHT22;21083;50.898;4.902;2023-08-07T03:14:01;13.00;99.90
20654;DHT22;21083;50.898;4.902;2023-08-07T03:16:28;13.00;99.90
20654;DHT22;21083;50.898;4.902;2023-08-07T03:18:55;12.90;99.90
20654;DHT22;21083;50.898;4.902;2023-08-07T03:21:24;13.10;99.90
20654;DHT22;21083;50.898;4.902;2023-08-07T03:23:51;12.90;99.90
20654;DHT22;21083;50.898;4.902;2023-08-07T03:26:18;12.80;99.90
20654;DHT22;21083;50.898;4.902;2023-08-07T03:28:45;12.80;99.90
20654;DHT22;21083;50.898;4.902;2023-08-07T03:31:12;12.80;99.90
20654;DHT22;21083;50.898;4.902;2023-08-07T03:33:39;13.00;99.90
20654;DHT22;21083;50.898;4.902;2023-08-07T03:36:06;13.10;99.90
20654;DHT22;21083;50.898;4.902;2023-08-07T03:38:35;13.00;99.90
20654;DHT22;21083;50.898;4.902;2023-08-07T03:41:02;12.90;99.90
20654;DHT22;21083;50.898;4.902;2023-08-07T03:43:29;12.90;99.90
20654;DHT22;21083;50.898;4.902;2023-08-07T03:45:56;12.80;99.90
20654;DHT22;21083;50.898;4.902;2023-08-07T03:48:23;12.80;99.90
20654;DHT22;21083;50.898;4.902;2023-08-07T03:50:50;12.90;99.90
20654;DHT22;21083;50.898;4.902;2023-08-07T03:53:17;12.90;99.90
20654;DHT22;21083;50.898;4.902;2023-08-07T03:55:50;13.10;99.90
20654;DHT22;21083;50.898;4.902;2023-08-07T03:58:17;13.20;99.90
20654;DHT22;21083;50.898;4.902;2023-08-07T04:00:44;13.10;99.90
20654;DHT22;21083;50.898;4.902;2023-08-07T04:03:11;13.20;99.90
20654;DHT22;21083;50.898;4.902;2023-08-07T04:05:38;13.30;99.90
20654;DHT22;21083;50.898;4.902;2023-08-07T04:08:05;13.40;99.90
20654;DHT22;21083;50.898;4.902;2023-08-07T04:10:32;13.30;99.90
20654;DHT22;21083;50.898;4.902;2023-08-07T04:13:01;13.40;99.90
20654;DHT22;21083;50.898;4.902;2023-08-07T04:15:28;13.30;99.90
20654;DHT22;21083;50.898;4.902;2023-08-07T04:17:54;13.30;99.90
20654;DHT22;21083;50.898;4.902;2023-08-07T04:20:22;13.40;99.90
20654;DHT22;21083;50.898;4.902;2023-08-07T04:22:48;13.30;99.90
20654;DHT22;21083;50.898;4.902;2023-08-07T04:25:15;13.20;99.90
20654;DHT22;21083;50.898;4.902;2023-08-07T04:27:42;13.30;99.90
20654;DHT22;21083;50.898;4.902;2023-08-07T04:30:12;13.50;99.90
20654;DHT22;21083;50.898;4.902;2023-08-07T04:32:39;13.50;99.90
20654;DHT22;21083;50.898;4.902;2023-08-07T04:35:07;13.50;99.90
20654;DHT22;21083;50.898;4.902;2023-08-07T04:37:35;13.40;99.90
20654;DHT22;21083;50.898;4.902;2023-08-07T04:40:02;13.60;99.90
20654;DHT22;21083;50.898;4.902;2023-08-07T04:42:30;13.50;99.90
20654;DHT22;21083;50.898;4.902;2023-08-07T04:44:58;13.60;99.90
20654;DHT22;21083;50.898;4.902;2023-08-07T04:47:28;13.60;99.90
20654;DHT22;21083;50.898;4.902;2023-08-07T04:49:55;13.60;99.90
20654;DHT22;21083;50.898;4.902;2023-08-07T04:52:22;13.50;99.90
20654;DHT22;21083;50.898;4.902;2023-08-07T04:54:49;13.70;99.90
20654;DHT22;21083;50.898;4.902;2023-08-07T04:57:15;13.80;99.90
20654;DHT22;21083;50.898;4.902;2023-08-07T04:59:42;13.80;99.90
20654;DHT22;21083;50.898;4.902;2023-08-07T05:02:09;13.80;99.90
20654;DHT22;21083;50.898;4.902;2023-08-07T05:04:38;13.80;99.90
20654;DHT22;21083;50.898;4.902;2023-08-07T05:07:05;13.90;99.90
20654;DHT22;21083;50.898;4.902;2023-08-07T05:09:32;13.90;99.90
20654;DHT22;21083;50.898;4.902;2023-08-07T05:11:59;13.70;99.90
20654;DHT22;21083;50.898;4.902;2023-08-07T05:14:26;13.70;99.90
20654;DHT22;21083;50.898;4.902;2023-08-07T05:16:53;13.90;99.90
20654;DHT22;21083;50.898;4.902;2023-08-07T05:19:20;13.80;99.90
20654;DHT22;21083;50.898;4.902;2023-08-07T05:21:49;13.80;99.90
20654;DHT22;21083;50.898;4.902;2023-08-07T05:24:16;13.70;99.90
20654;DHT22;21083;50.898;4.902;2023-08-07T05:26:43;13.80;99.90
20654;DHT22;21083;50.898;4.902;2023-08-07T05:29:10;13.80;99.90
20654;DHT22;21083;50.898;4.902;2023-08-07T05:31:37;13.90;99.90
20654;DHT22;21083;50.898;4.902;2023-08-07T05:34:04;13.90;99.90
20654;DHT22;21083;50.898;4.902;2023-08-07T05:36:32;13.80;99.90
20654;DHT22;21083;50.898;4.902;2023-08-07T05:39:01;13.90;99.90
20654;DHT22;21083;50.898;4.902;2023-08-07T05:41:29;13.60;99.90
20654;DHT22;21083;50.898;4.902;2023-08-07T05:43:56;13.50;99.90
20654;DHT22;21083;50.898;4.902;2023-08-07T05:46:23;13.60;99.90
20654;DHT22;21083;50.898;4.902;2023-08-07T05:48:50;13.50;99.90
20654;DHT22;21083;50.898;4.902;2023-08-07T05:51:17;13.60;99.90
20654;DHT22;21083;50.898;4.902;2023-08-07T05:53:45;13.60;99.90
20654;DHT22;21083;50.898;4.902;2023-08-07T05:56:13;13.60;99.90
20654;DHT22;21083;50.898;4.902;2023-08-07T05:58:40;13.80;99.90
20654;DHT22;21083;50.898;4.902;2023-08-07T06:01:07;13.70;99.90
20654;DHT22;21083;50.898;4.902;2023-08-07T06:03:34;13.70;99.90
20654;DHT22;21083;50.898;4.902;2023-08-07T06:06:01;13.80;99.90
20654;DHT22;21083;50.898;4.902;2023-08-07T06:08:29;13.70;99.90
20654;DHT22;21083;50.898;4.902;2023-08-07T06:10:56;13.80;99.90
20654;DHT22;21083;50.898;4.902;2023-08-07T06:13:24;14.00;99.90
20654;DHT22;21083;50.898;4.902;2023-08-07T06:15:51;13.80;99.90
20654;DHT22;21083;50.898;4.902;2023-08-07T06:18:18;13.80;99.90
20654;DHT22;21083;50.898;4.902;2023-08-07T06:20:44;13.90;99.90
20654;DHT22;21083;50.898;4.902;2023-08-07T06:23:12;14.10;99.90
20654;DHT22;21083;50.898;4.902;2023-08-07T06:25:39;14.20;99.90
20654;DHT22;21083;50.898;4.902;2023-08-07T06:28:06;14.40;99.90
20654;DHT22;21083;50.898;4.902;2023-08-07T06:30:34;14.40;99.90
20654;DHT22;21083;50.898;4.902;2023-08-07T06:33:02;14.30;99.90
20654;DHT22;21083;50.898;4.902;2023-08-07T06:35:29;14.30;99.90
20654;DHT22;21083;50.898;4.902;2023-08-07T06:37:56;14.40;99.90
20654;DHT22;21083;50.898;4.902;2023-08-07T06:40:23;14.50;99.90
20654;DHT22;21083;50.898;4.902;2023-08-07T06:42:50;14.70;99.90
20654;DHT22;21083;50.898;4.902;2023-08-07T06:45:17;14.80;99.90
20654;DHT22;21083;50.898;4.902;2023-08-07T06:47:46;15.00;99.90
20654;DHT22;21083;50.898;4.902;2023-08-07T06:50:13;15.10;99.90
20654;DHT22;21083;50.898;4.902;2023-08-07T06:52:40;15.10;99.90
20654;DHT22;21083;50.898;4.902;2023-08-07T06:55:08;15.20;99.90
20654;DHT22;21083;50.898;4.902;2023-08-07T06:57:35;15.30;99.90
20654;DHT22;21083;50.898;4.902;2023-08-07T07:00:02;15.50;99.90
20654;DHT22;21083;50.898;4.902;2023-08-07T07:02:30;15.60;99.90
20654;DHT22;21083;50.898;4.902;2023-08-07T07:04:59;15.50;99.90
20654;DHT22;21083;50.898;4.902;2023-08-07T07:07:26;15.60;99.90
20654;DHT22;21083;50.898;4.902;2023-08-07T07:09:53;15.60;99.90
20654;DHT22;21083;50.898;4.902;2023-08-07T07:12:19;15.70;99.90
20654;DHT22;21083;50.898;4.902;2023-08-07T07:14:46;15.70;99.90
20654;DHT22;21083;50.898;4.902;2023-08-07T07:17:13;15.80;99.90
20654;DHT22;21083;50.898;4.902;2023-08-07T07:19:40;15.80;99.90
20654;DHT22;21083;50.898;4.902;2023-08-07T07:22:09;15.70;99.90
20654;DHT22;21083;50.898;4.902;2023-08-07T07:24:36;15.90;99.90
20654;DHT22;21083;50.898;4.902;2023-08-07T07:27:03;16.00;99.90
20654;DHT22;21083;50.898;4.902;2023-08-07T07:29:30;16.00;99.90
20654;DHT22;21083;50.898;4.902;2023-08-07T07:31:57;15.90;99.90
20654;DHT22;21083;50.898;4.902;2023-08-07T07:34:24;16.00;99.90
20654;DHT22;21083;50.898;4.902;2023-08-07T07:36:51;16.00;99.90
20654;DHT22;21083;50.898;4.902;2023-08-07T07:39:21;16.20;99.90
20654;DHT22;21083;50.898;4.902;2023-08-07T07:41:48;16.20;99.90
20654;DHT22;21083;50.898;4.902;2023-08-07T07:44:15;16.30;99.90
20654;DHT22;21083;50.898;4.902;2023-08-07T07:46:41;16.50;99.90
20654;DHT22;21083;50.898;4.902;2023-08-07T07:49:08;16.50;99.90
20654;DHT22;21083;50.898;4.902;2023-08-07T07:51:35;16.60;99.90
20654;DHT22;21083;50.898;4.902;2023-08-07T07:54:03;16.70;99.90
20654;DHT22;21083;50.898;4.902;2023-08-07T07:56:31;16.60;99.90
20654;DHT22;21083;50.898;4.902;2023-08-07T07:58:58;16.90;99.90
20654;DHT22;21083;50.898;4.902;2023-08-07T08:01:25;16.90;99.90
20654;DHT22;21083;50.898;4.902;2023-08-07T08:03:52;16.90;99.90
20654;DHT22;21083;50.898;4.902;2023-08-07T08:06:19;17.00;99.90
20654;DHT22;21083;50.898;4.902;2023-08-07T08:08:46;17.20;99.90
20654;DHT22;21083;50.898;4.902;2023-08-07T08:11:13;17.30;99.90
20654;DHT22;21083;50.898;4.902;2023-08-07T08:13:42;17.30;99.90
20654;DHT22;21083;50.898;4.902;2023-08-07T08:16:09;17.30;99.90
20654;DHT22;21083;50.898;4.902;2023-08-07T08:18:35;17.30;99.90
20654;DHT22;21083;50.898;4.902;2023-08-07T08:21:03;17.20;99.90
20654;DHT22;21083;50.898;4.902;2023-08-07T08:23:29;17.40;99.90
20654;DHT22;21083;50.898;4.902;2023-08-07T08:25:56;17.60;99.90
20654;DHT22;21083;50.898;4.902;2023-08-07T08:28:23;17.70;99.90
20654;DHT22;21083;50.898;4.902;2023-08-07T08:30:52;17.70;99.90
20654;DHT22;21083;50.898;4.902;2023-08-07T08:33:18;17.70;99.90
20654;DHT22;21083;50.898;4.902;2023-08-07T08:35:45;17.50;99.90
20654;DHT22;21083;50.898;4.902;2023-08-07T08:38:12;17.50;99.90
20654;DHT22;21083;50.898;4.902;2023-08-07T08:40:39;17.70;99.90
20654;DHT22;21083;50.898;4.902;2023-08-07T08:43:06;17.90;99.90
20654;DHT22;21083;50.898;4.902;2023-08-07T08:45:36;18.10;99.90
20654;DHT22;21083;50.898;4.902;2023-08-07T08:48:05;18.00;99.90
20654;DHT22;21083;50.898;4.902;2023-08-07T08:50:34;18.10;99.90
20654;DHT22;21083;50.898;4.902;2023-08-07T08:53:02;17.80;99.90
20654;DHT22;21083;50.898;4.902;2023-08-07T08:55:30;17.60;99.90
20654;DHT22;21083;50.898;4.902;2023-08-07T08:57:58;17.70;99.90
20654;DHT22;21083;50.898;4.902;2023-08-07T09:00:27;17.70;99.90
20654;DHT22;21083;50.898;4.902;2023-08-07T09:02:55;17.60;99.90
20654;DHT22;21083;50.898;4.902;2023-08-07T09:05:23;17.60;99.90
20654;DHT22;21083;50.898;4.902;2023-08-07T09:07:50;17.70;99.90
20654;DHT22;21083;50.898;4.902;2023-08-07T09:10:18;17.70;99.90
20654;DHT22;21083;50.898;4.902;2023-08-07T09:12:51;17.70;99.90
20654;DHT22;21083;50.898;4.902;2023-08-07T09:15:21;17.90;99.90
20654;DHT22;21083;50.898;4.902;2023-08-07T09:17:49;18.00;99.90
20654;DHT22;21083;50.898;4.902;2023-08-07T09:20:18;18.30;99.90
20654;DHT22;21083;50.898;4.902;2023-08-07T09:22:46;18.60;99.90
20654;DHT22;21083;50.898;4.902;2023-08-07T09:25:14;18.70;99.90
20654;DHT22;21083;50.898;4.902;2023-08-07T09:27:41;18.60;99.90
20654;DHT22;21083;50.898;4.902;2023-08-07T09:30:09;18.30;99.90
20654;DHT22;21083;50.898;4.902;2023-08-07T09:32:37;18.10;99.90
20654;DHT22;21083;50.898;4.902;2023-08-07T09:35:06;17.90;99.90
20654;DHT22;21083;50.898;4.902;2023-08-07T09:37:36;17.60;99.90
20654;DHT22;21083;50.898;4.902;2023-08-07T09:40:07;17.60;99.90
20654;DHT22;21083;50.898;4.902;2023-08-07T09:42:36;17.90;99.90
20654;DHT22;21083;50.898;4.902;2023-08-07T09:45:19;18.20;99.90
20654;DHT22;21083;50.898;4.902;2023-08-07T09:47:46;18.60;99.90
20654;DHT22;21083;50.898;4.902;2023-08-07T09:50:15;18.90;99.90
20654;DHT22;21083;50.898;4.902;2023-08-07T09:52:46;19.30;99.90
20654;DHT22;21083;50.898;4.902;2023-08-07T09:55:14;19.60;99.90
20654;DHT22;21083;50.898;4.902;2023-08-07T09:57:42;19.60;99.90
20654;DHT22;21083;50.898;4.902;2023-08-07T10:00:10;19.40;99.90
20654;DHT22;21083;50.898;4.902;2023-08-07T10:02:40;19.30;99.90
20654;DHT22;21083;50.898;4.902;2023-08-07T10:05:09;19.40;99.90
20654;DHT22;21083;50.898;4.902;2023-08-07T10:07:37;19.40;99.90
20654;DHT22;21083;50.898;4.902;2023-08-07T10:10:06;19.70;99.90
20654;DHT22;21083;50.898;4.902;2023-08-07T10:12:34;19.80;99.90
20654;DHT22;21083;50.898;4.902;2023-08-07T10:15:03;19.70;99.90
20654;DHT22;21083;50.898;4.902;2023-08-07T10:17:32;19.60;99.90
20654;DHT22;21083;50.898;4.902;2023-08-07T10:19:58;19.40;99.90
20654;DHT22;21083;50.898;4.902;2023-08-07T10:22:29;19.20;99.90
20654;DHT22;21083;50.898;4.902;2023-08-07T10:24:57;19.10;99.90
20654;DHT22;21083;50.898;4.902;2023-08-07T10:27:26;19.30;99.90
20654;DHT22;21083;50.898;4.902;2023-08-07T10:29:56;19.40;99.90
20654;DHT22;21083;50.898;4.902;2023-08-07T10:32:25;19.60;99.90
20654;DHT22;21083;50.898;4.902;2023-08-07T10:34:53;19.80;99.90
20654;DHT22;21083;50.898;4.902;2023-08-07T10:37:38;19.60;99.90
20654;DHT22;21083;50.898;4.902;2023-08-07T10:40:07;19.30;99.90
20654;DHT22;21083;50.898;4.902;2023-08-07T10:42:55;19.60;99.90
20654;DHT22;21083;50.898;4.902;2023-08-07T10:45:25;20.00;99.90
20654;DHT22;21083;50.898;4.902;2023-08-07T10:48:02;20.30;99.90
20654;DHT22;21083;50.898;4.902;2023-08-07T10:50:32;20.40;99.90
20654;DHT22;21083;50.898;4.902;2023-08-07T10:53:02;20.40;99.90
20654;DHT22;21083;50.898;4.902;2023-08-07T10:55:42;20.40;99.90
20654;DHT22;21083;50.898;4.902;2023-08-07T10:58:21;20.40;99.90
20654;DHT22;21083;50.898;4.902;2023-08-07T11:00:51;20.60;99.90
20654;DHT22;21083;50.898;4.902;2023-08-07T11:03:26;20.70;99.90
20654;DHT22;21083;50.898;4.902;2023-08-07T11:05:53;20.70;99.90
20654;DHT22;21083;50.898;4.902;2023-08-07T11:08:22;20.80;99.90
20654;DHT22;21083;50.898;4.902;2023-08-07T11:10:51;20.90;99.90
20654;DHT22;21083;50.898;4.902;2023-08-07T11:13:18;21.10;99.90
20654;DHT22;21083;50.898;4.902;2023-08-07T11:15:46;21.20;99.90
20654;DHT22;21083;50.898;4.902;2023-08-07T11:18:14;21.50;99.90
20654;DHT22;21083;50.898;4.902;2023-08-07T11:20:42;21.60;99.90
20654;DHT22;21083;50.898;4.902;2023-08-07T11:23:09;21.70;99.90
20654;DHT22;21083;50.898;4.902;2023-08-07T11:25:37;21.30;99.90
20654;DHT22;21083;50.898;4.902;2023-08-07T11:28:04;20.90;99.90
20654;DHT22;21083;50.898;4.902;2023-08-07T11:30:31;21.00;99.90
20654;DHT22;21083;50.898;4.902;2023-08-07T11:32:58;21.30;99.90
20654;DHT22;21083;50.898;4.902;2023-08-07T11:35:26;21.80;99.90
20654;DHT22;21083;50.898;4.902;2023-08-07T11:37:53;22.20;99.90
20654;DHT22;21083;50.898;4.902;2023-08-07T11:40:20;22.40;99.90
20654;DHT22;21083;50.898;4.902;2023-08-07T11:42:47;22.40;99.90
20654;DHT22;21083;50.898;4.902;2023-08-07T11:45:14;22.00;99.90
20654;DHT22;21083;50.898;4.902;2023-08-07T11:47:41;21.40;99.90
20654;DHT22;21083;50.898;4.902;2023-08-07T11:50:10;21.10;99.90
20654;DHT22;21083;50.898;4.902;2023-08-07T11:52:38;21.30;99.90
20654;DHT22;21083;50.898;4.902;2023-08-07T11:55:06;21.70;99.90
20654;DHT22;21083;50.898;4.902;2023-08-07T11:57:37;22.30;99.90
20654;DHT22;21083;50.898;4.902;2023-08-07T12:00:06;22.40;99.90
20654;DHT22;21083;50.898;4.902;2023-08-07T12:02:41;21.80;99.90
20654;DHT22;21083;50.898;4.902;2023-08-07T12:05:10;21.80;99.90
20654;DHT22;21083;50.898;4.902;2023-08-07T12:07:39;21.90;99.90
20654;DHT22;21083;50.898;4.902;2023-08-07T12:10:08;22.20;99.90
20654;DHT22;21083;50.898;4.902;2023-08-07T12:12:36;22.50;99.90
20654;DHT22;21083;50.898;4.902;2023-08-07T12:15:04;22.10;99.90
20654;DHT22;21083;50.898;4.902;2023-08-07T12:17:33;22.10;99.90
20654;DHT22;21083;50.898;4.902;2023-08-07T12:20:00;22.10;99.90
20654;DHT22;21083;50.898;4.902;2023-08-07T12:22:27;22.00;99.90
20654;DHT22;21083;50.898;4.902;2023-08-07T12:24:56;22.20;99.90
20654;DHT22;21083;50.898;4.902;2023-08-07T12:27:23;22.50;99.90
20654;DHT22;21083;50.898;4.902;2023-08-07T12:29:50;22.60;99.90
20654;DHT22;21083;50.898;4.902;2023-08-07T12:32:17;22.60;99.90
20654;DHT22;21083;50.898;4.902;2023-08-07T12:34:43;22.80;99.90
20654;DHT22;21083;50.898;4.902;2023-08-07T12:37:10;23.00;99.90
20654;DHT22;21083;50.898;4.902;2023-08-07T12:39:38;23.30;99.90
20654;DHT22;21083;50.898;4.902;2023-08-07T12:42:07;23.00;99.90
20654;DHT22;21083;50.898;4.902;2023-08-07T12:44:34;22.70;99.90
20654;DHT22;21083;50.898;4.902;2023-08-07T12:47:01;22.40;99.90
20654;DHT22;21083;50.898;4.902;2023-08-07T12:49:27;22.30;99.90
20654;DHT22;21083;50.898;4.902;2023-08-07T12:51:54;22.20;99.90
20654;DHT22;21083;50.898;4.902;2023-08-07T12:54:23;22.00;99.90
20654;DHT22;21083;50.898;4.902;2023-08-07T12:56:50;21.80;99.90
20654;DHT22;21083;50.898;4.902;2023-08-07T12:59:19;21.80;99.90
20654;DHT22;21083;50.898;4.902;2023-08-07T13:01:46;22.30;99.90
20654;DHT22;21083;50.898;4.902;2023-08-07T13:04:12;22.20;99.90
20654;DHT22;21083;50.898;4.902;2023-08-07T13:06:41;22.50;99.90
20654;DHT22;21083;50.898;4.902;2023-08-07T13:09:08;22.30;99.90
20654;DHT22;21083;50.898;4.902;2023-08-07T13:11:35;22.20;99.90
20654;DHT22;21083;50.898;4.902;2023-08-07T13:14:02;22.20;99.90
20654;DHT22;21083;50.898;4.902;2023-08-07T13:16:31;22.00;99.90
20654;DHT22;21083;50.898;4.902;2023-08-07T13:18:57;22.40;99.90
20654;DHT22;21083;50.898;4.902;2023-08-07T13:21:24;22.40;99.90
20654;DHT22;21083;50.898;4.902;2023-08-07T13:23:51;22.40;99.90
20654;DHT22;21083;50.898;4.902;2023-08-07T13:26:18;22.20;99.90
20654;DHT22;21083;50.898;4.902;2023-08-07T13:28:45;22.10;99.90
20654;DHT22;21083;50.898;4.902;2023-08-07T13:31:12;21.80;99.90
20654;DHT22;21083;50.898;4.902;2023-08-07T13:33:40;21.60;99.90
20654;DHT22;21083;50.898;4.902;2023-08-07T13:36:07;21.40;99.90
20654;DHT22;21083;50.898;4.902;2023-08-07T13:38:34;21.20;99.90
20654;DHT22;21083;50.898;4.902;2023-08-07T13:41:01;21.40;99.90
20654;DHT22;21083;50.898;4.902;2023-08-07T13:43:29;21.20;99.90
20654;DHT22;21083;50.898;4.902;2023-08-07T13:45:55;21.10;99.90
20654;DHT22;21083;50.898;4.902;2023-08-07T13:48:22;21.10;99.90
20654;DHT22;21083;50.898;4.902;2023-08-07T13:50:53;21.20;99.90
20654;DHT22;21083;50.898;4.902;2023-08-07T13:53:20;21.30;99.90
20654;DHT22;21083;50.898;4.902;2023-08-07T13:55:49;21.20;99.90
20654;DHT22;21083;50.898;4.902;2023-08-07T13:58:16;21.30;99.90
20654;DHT22;21083;50.898;4.902;2023-08-07T14:00:43;21.30;99.90
20654;DHT22;21083;50.898;4.902;2023-08-07T14:03:10;21.60;99.90
20654;DHT22;21083;50.898;4.902;2023-08-07T14:05:38;21.60;99.90
20654;DHT22;21083;50.898;4.902;2023-08-07T14:08:06;21.70;99.90
20654;DHT22;21083;50.898;4.902;2023-08-07T14:10:35;22.10;99.90
20654;DHT22;21083;50.898;4.902;2023-08-07T14:13:02;22.40;99.90
20654;DHT22;21083;50.898;4.902;2023-08-07T14:15:29;22.40;99.90
20654;DHT22;21083;50.898;4.902;2023-08-07T14:17:56;22.50;99.90
20654;DHT22;21083;50.898;4.902;2023-08-07T14:20:23;22.90;99.90
20654;DHT22;21083;50.898;4.902;2023-08-07T14:22:50;23.00;99.90
20654;DHT22;21083;50.898;4.902;2023-08-07T14:25:18;23.10;99.90
20654;DHT22;21083;50.898;4.902;2023-08-07T14:27:47;23.10;99.90
20654;DHT22;21083;50.898;4.902;2023-08-07T14:30:14;23.20;99.90
20654;DHT22;21083;50.898;4.902;2023-08-07T14:32:41;23.30;99.90
20654;DHT22;21083;50.898;4.902;2023-08-07T14:35:08;23.50;99.90
20654;DHT22;21083;50.898;4.902;2023-08-07T14:37:35;23.60;99.90
20654;DHT22;21083;50.898;4.902;2023-08-07T14:40:03;23.20;99.90
20654;DHT22;21083;50.898;4.902;2023-08-07T14:42:31;22.90;99.90
20654;DHT22;21083;50.898;4.902;2023-08-07T14:44:58;22.70;99.90
20654;DHT22;21083;50.898;4.902;2023-08-07T14:47:25;22.70;99.90
20654;DHT22;21083;50.898;4.902;2023-08-07T14:49:52;22.80;99.90
20654;DHT22;21083;50.898;4.902;2023-08-07T14:52:19;22.80;99.90
20654;DHT22;21083;50.898;4.902;2023-08-07T14:54:46;22.80;99.90
20654;DHT22;21083;50.898;4.902;2023-08-07T14:57:13;22.20;99.90
20654;DHT22;21083;50.898;4.902;2023-08-07T14:59:42;21.90;99.90
20654;DHT22;21083;50.898;4.902;2023-08-07T15:02:09;21.70;99.90
20654;DHT22;21083;50.898;4.902;2023-08-07T15:04:35;21.40;99.90
20654;DHT22;21083;50.898;4.902;2023-08-07T15:07:03;21.50;99.90
20654;DHT22;21083;50.898;4.902;2023-08-07T15:09:30;21.80;99.90
20654;DHT22;21083;50.898;4.902;2023-08-07T15:11:57;21.70;99.90
20654;DHT22;21083;50.898;4.902;2023-08-07T15:14:24;21.60;99.90
20654;DHT22;21083;50.898;4.902;2023-08-07T15:16:52;21.50;99.90
20654;DHT22;21083;50.898;4.902;2023-08-07T15:19:19;21.40;99.90
20654;DHT22;21083;50.898;4.902;2023-08-07T15:21:46;21.50;99.90
20654;DHT22;21083;50.898;4.902;2023-08-07T15:24:13;21.50;99.90
20654;DHT22;21083;50.898;4.902;2023-08-07T15:26:40;21.80;99.90
20654;DHT22;21083;50.898;4.902;2023-08-07T15:29:07;22.10;99.90
20654;DHT22;21083;50.898;4.902;2023-08-07T15:31:33;22.50;99.90
20654;DHT22;21083;50.898;4.902;2023-08-07T15:34:02;22.70;99.90